http://www.schuttertalwetter.de (Christian Eisenberg)
Wetterdaten: aktuell Sonntag, 16.09.2018 18:10
Datum Zeit Temp. A. Luftdruck Regen Wind Richtung Richtung Sonnenschein Solar Windben
16.09.2018 18:10 24,0 C 1019,5 hPa 0,0 l/m 0,0 km/h (0 Bft) - - 0 60 min 160 W/m 0,0 km/h (0 Bft)
16.09.2018 17:10 24,9 C 1019,5 hPa 0,0 l/m 0,0 km/h (0 Bft) - - 0 60 min 309 W/m 0,0 km/h (0 Bft)
16.09.2018 16:10 24,8 C 1020,0 hPa 0,0 l/m 0,0 km/h (0 Bft) - - 0 60 min 445 W/m 0,0 km/h (0 Bft)
16.09.2018 15:10 23,8 C 1020,7 hPa 0,0 l/m 0,0 km/h (0 Bft) - - 0 60 min 596 W/m 0,0 km/h (0 Bft)
16.09.2018 14:10 23,3 C 1021,0 hPa 0,0 l/m 0,0 km/h (0 Bft) - - 0 60 min 596 W/m 0,0 km/h (0 Bft)
16.09.2018 13:10 23,1 C 1021,3 hPa 0,0 l/m 0,0 km/h (0 Bft) - - 0 60 min 622 W/m 0,0 km/h (0 Bft)
16.09.2018 12:10 21,3 C 1022,0 hPa 0,0 l/m 0,0 km/h (0 Bft) - - 0 60 min 582 W/m 0,0 km/h (0 Bft)
16.09.2018 11:10 19,9 C 1022,7 hPa 0,0 l/m 0,0 km/h (0 Bft) - - 0 60 min 526 W/m 0,0 km/h (0 Bft)
16.09.2018 10:10 17,1 C 1023,0 hPa 0,0 l/m 0,0 km/h (0 Bft) - - 0 60 min 401 W/m 0,0 km/h (0 Bft)
16.09.2018 09:10 13,1 C 1023,1 hPa 0,0 l/m 0,0 km/h (0 Bft) - - 0 55 min 243 W/m 0,0 km/h (0 Bft)
16.09.2018 08:10 9,1 C 1023,1 hPa 0,0 l/m 0,0 km/h (0 Bft) - - 0 0 min 30 W/m 0,0 km/h (0 Bft)
16.09.2018 07:10 8,8 C 1022,9 hPa 0,0 l/m 0,0 km/h (0 Bft) - - 0 0 min 5 W/m 0,0 km/h (0 Bft)
16.09.2018 06:10 9,0 C 1022,9 hPa 0,0 l/m 0,0 km/h (0 Bft) - - 0 0 min 0 W/m 0,0 km/h (0 Bft)
16.09.2018 05:10 8,8 C 1023,0 hPa 0,0 l/m 0,0 km/h (0 Bft) - - 0 0 min 0 W/m 0,0 km/h (0 Bft)
16.09.2018 04:10 8,6 C 1023,4 hPa 0,0 l/m 0,0 km/h (0 Bft) - - 0 0 min 0 W/m 0,0 km/h (0 Bft)
16.09.2018 03:10 8,4 C 1023,8 hPa 0,0 l/m 0,0 km/h (0 Bft) - - 0 0 min 0 W/m 0,0 km/h (0 Bft)
16.09.2018 02:10 8,8 C 1024,3 hPa 0,0 l/m 0,0 km/h (0 Bft) - - 0 0 min 0 W/m 0,0 km/h (0 Bft)
16.09.2018 01:10 8,6 C 1025,0 hPa 0,0 l/m 0,0 km/h (0 Bft) - - 0 0 min 0 W/m 0,0 km/h (0 Bft)
16.09.2018 00:10 9,3 C 1025,2 hPa 0,0 l/m 0,0 km/h (0 Bft) - - 0 0 min 0 W/m 0,0 km/h (0 Bft)
15.09.2018 23:10 9,8 C 1025,2 hPa 0,0 l/m 0,0 km/h (0 Bft) - - 0 0 min 0 W/m 0,0 km/h (0 Bft)
15.09.2018 22:10 10,4 C 1025,1 hPa 0,0 l/m 0,0 km/h (0 Bft) - - 0 0 min 0 W/m 0,0 km/h (0 Bft)
15.09.2018 21:10 11,8 C 1024,8 hPa 0,0 l/m 0,0 km/h (0 Bft) - - 0 0 min 0 W/m 0,0 km/h (0 Bft)
15.09.2018 20:10 13,2 C 1024,4 hPa 0,0 l/m 0,0 km/h (0 Bft) - - 0 5 min 0 W/m 0,0 km/h (0 Bft)
15.09.2018 19:10 17,7 C 1023,8 hPa 0,0 l/m 0,0 km/h (0 Bft) - - 0 0 min 18 W/m 0,0 km/h (0 Bft)
15.09.2018 19:00 19,1 C 1023,7 hPa 0,0 l/m 0,0 km/h (0 Bft) - - 0 0 min 21 W/m 0,0 km/h (0 Bft)
_ Min-Zeit 03:50 17:55 - 18:10 - - - - 18:10
Minimum _ 8,4 C 1019,4 hPa - 0,0 km/h (0 Bft) - - - - 0,0 km/h (0 Bft)
_ Max-Zeit 17:45 23:15 18:10 18:10 - - 18:10 13:30 18:10
Maximum _ 25,4 C 1025,3 hPa 0,0 l/m 0,0 km/h
- - (0 Bft)
- - 5 min 659 W/m 0,0 km/h
- - (0 Bft)
Durchschnitt _ 15,0 C 1023,0 hPa #0,0 l/m 0,0 km/h (0 Bft) - - - #9:55 h 400 W/m 0,0 km/h (0 Bft)